sensor_id;sensor_type;location;lat;lon;timestamp;temperature;humidity
8105;DHT22;4095;48.942;9.104;2023-02-28T00:01:05;3.20;77.30
8105;DHT22;4095;48.942;9.104;2023-02-28T00:03:31;3.20;77.30
8105;DHT22;4095;48.942;9.104;2023-02-28T00:06:03;3.20;77.50
8105;DHT22;4095;48.942;9.104;2023-02-28T00:08:29;3.20;77.30
8105;DHT22;4095;48.942;9.104;2023-02-28T00:10:55;3.10;77.80
8105;DHT22;4095;48.942;9.104;2023-02-28T00:13:21;3.10;77.90
8105;DHT22;4095;48.942;9.104;2023-02-28T00:15:46;3.10;78.00
8105;DHT22;4095;48.942;9.104;2023-02-28T00:18:12;3.10;78.80
8105;DHT22;4095;48.942;9.104;2023-02-28T00:20:38;3.10;78.70
8105;DHT22;4095;48.942;9.104;2023-02-28T00:23:04;3.10;78.70
8105;DHT22;4095;48.942;9.104;2023-02-28T00:25:29;3.10;79.10
8105;DHT22;4095;48.942;9.104;2023-02-28T00:27:55;3.10;79.40
8105;DHT22;4095;48.942;9.104;2023-02-28T00:30:22;3.10;79.30
8105;DHT22;4095;48.942;9.104;2023-02-28T00:32:49;3.10;79.80
8105;DHT22;4095;48.942;9.104;2023-02-28T00:35:15;3.10;79.90
8105;DHT22;4095;48.942;9.104;2023-02-28T00:37:42;3.00;79.80
8105;DHT22;4095;48.942;9.104;2023-02-28T00:40:08;3.00;80.00
8105;DHT22;4095;48.942;9.104;2023-02-28T00:42:35;3.00;80.50
8105;DHT22;4095;48.942;9.104;2023-02-28T00:45:02;2.90;80.40
8105;DHT22;4095;48.942;9.104;2023-02-28T00:47:29;2.90;81.00
8105;DHT22;4095;48.942;9.104;2023-02-28T00:49:55;2.80;81.20
8105;DHT22;4095;48.942;9.104;2023-02-28T00:52:20;2.70;81.60
8105;DHT22;4095;48.942;9.104;2023-02-28T00:54:46;2.70;81.70
8105;DHT22;4095;48.942;9.104;2023-02-28T00:57:12;2.70;82.00
8105;DHT22;4095;48.942;9.104;2023-02-28T00:59:38;2.80;82.20
8105;DHT22;4095;48.942;9.104;2023-02-28T01:02:03;2.80;82.30
8105;DHT22;4095;48.942;9.104;2023-02-28T01:04:29;2.80;82.40
8105;DHT22;4095;48.942;9.104;2023-02-28T01:06:54;2.70;82.50
8105;DHT22;4095;48.942;9.104;2023-02-28T01:09:20;2.80;83.00
8105;DHT22;4095;48.942;9.104;2023-02-28T01:11:45;2.80;82.70
8105;DHT22;4095;48.942;9.104;2023-02-28T01:14:13;2.80;82.80
8105;DHT22;4095;48.942;9.104;2023-02-28T01:16:39;2.80;83.00
8105;DHT22;4095;48.942;9.104;2023-02-28T01:19:05;2.80;83.60
8105;DHT22;4095;48.942;9.104;2023-02-28T01:21:31;2.80;83.10
8105;DHT22;4095;48.942;9.104;2023-02-28T01:23:57;2.80;83.20
8105;DHT22;4095;48.942;9.104;2023-02-28T01:26:23;2.70;83.30
8105;DHT22;4095;48.942;9.104;2023-02-28T01:28:50;2.80;83.30
8105;DHT22;4095;48.942;9.104;2023-02-28T01:31:17;2.80;83.30
8105;DHT22;4095;48.942;9.104;2023-02-28T01:33:43;2.80;83.50
8105;DHT22;4095;48.942;9.104;2023-02-28T01:36:12;2.70;83.40
8105;DHT22;4095;48.942;9.104;2023-02-28T01:38:38;2.80;83.60
8105;DHT22;4095;48.942;9.104;2023-02-28T01:41:05;2.70;83.80
8105;DHT22;4095;48.942;9.104;2023-02-28T01:43:52;2.80;83.80
8105;DHT22;4095;48.942;9.104;2023-02-28T01:46:18;2.80;83.70
8105;DHT22;4095;48.942;9.104;2023-02-28T01:49:01;2.80;83.70
8105;DHT22;4095;48.942;9.104;2023-02-28T01:51:37;2.70;84.00
8105;DHT22;4095;48.942;9.104;2023-02-28T01:54:10;2.70;84.50
8105;DHT22;4095;48.942;9.104;2023-02-28T01:56:46;2.80;84.60
8105;DHT22;4095;48.942;9.104;2023-02-28T01:59:17;2.80;84.70
8105;DHT22;4095;48.942;9.104;2023-02-28T02:01:45;2.80;85.20
8105;DHT22;4095;48.942;9.104;2023-02-28T02:04:10;2.80;84.80
8105;DHT22;4095;48.942;9.104;2023-02-28T02:06:44;2.80;84.90
8105;DHT22;4095;48.942;9.104;2023-02-28T02:09:11;2.70;85.20
8105;DHT22;4095;48.942;9.104;2023-02-28T02:11:39;2.70;85.50
8105;DHT22;4095;48.942;9.104;2023-02-28T02:14:31;2.80;85.70
8105;DHT22;4095;48.942;9.104;2023-02-28T02:25:32;2.80;85.80
8105;DHT22;4095;48.942;9.104;2023-02-28T02:36:42;2.90;86.20
8105;DHT22;4095;48.942;9.104;2023-02-28T02:39:29;2.80;86.00
8105;DHT22;4095;48.942;9.104;2023-02-28T02:41:59;2.80;86.70
8105;DHT22;4095;48.942;9.104;2023-02-28T02:47:30;2.80;86.60
8105;DHT22;4095;48.942;9.104;2023-02-28T02:49:59;2.80;87.20
8105;DHT22;4095;48.942;9.104;2023-02-28T02:52:39;2.80;87.00
8105;DHT22;4095;48.942;9.104;2023-02-28T02:55:08;2.80;88.20
8105;DHT22;4095;48.942;9.104;2023-02-28T02:57:47;2.80;87.40
8105;DHT22;4095;48.942;9.104;2023-02-28T03:00:15;2.90;87.40
8105;DHT22;4095;48.942;9.104;2023-02-28T03:02:43;2.80;87.60
8105;DHT22;4095;48.942;9.104;2023-02-28T03:05:19;2.90;86.90
8105;DHT22;4095;48.942;9.104;2023-02-28T03:07:45;2.90;87.00
8105;DHT22;4095;48.942;9.104;2023-02-28T03:10:32;2.90;87.10
8105;DHT22;4095;48.942;9.104;2023-02-28T03:16:11;2.90;87.60
8105;DHT22;4095;48.942;9.104;2023-02-28T03:26:58;2.80;88.20
8105;DHT22;4095;48.942;9.104;2023-02-28T03:29:32;2.90;88.00
8105;DHT22;4095;48.942;9.104;2023-02-28T03:32:05;2.90;87.60
8105;DHT22;4095;48.942;9.104;2023-02-28T03:34:42;3.00;88.00
8105;DHT22;4095;48.942;9.104;2023-02-28T03:37:16;3.00;88.10
8105;DHT22;4095;48.942;9.104;2023-02-28T03:39:47;3.00;87.80
8105;DHT22;4095;48.942;9.104;2023-02-28T03:42:20;3.00;87.80
8105;DHT22;4095;48.942;9.104;2023-02-28T03:45:00;3.00;88.10
8105;DHT22;4095;48.942;9.104;2023-02-28T03:50:41;3.00;87.80
8105;DHT22;4095;48.942;9.104;2023-02-28T03:56:16;3.00;87.70
8105;DHT22;4095;48.942;9.104;2023-02-28T04:01:38;3.00;87.80
8105;DHT22;4095;48.942;9.104;2023-02-28T04:04:06;3.00;87.60
8105;DHT22;4095;48.942;9.104;2023-02-28T04:06:34;3.00;87.90
8105;DHT22;4095;48.942;9.104;2023-02-28T04:09:00;3.00;88.30
8105;DHT22;4095;48.942;9.104;2023-02-28T04:11:40;3.10;88.10
8105;DHT22;4095;48.942;9.104;2023-02-28T04:14:07;3.10;87.80
8105;DHT22;4095;48.942;9.104;2023-02-28T04:16:35;3.00;88.10
8105;DHT22;4095;48.942;9.104;2023-02-28T04:19:04;3.10;88.20
8105;DHT22;4095;48.942;9.104;2023-02-28T04:21:33;3.10;88.20
8105;DHT22;4095;48.942;9.104;2023-02-28T04:23:59;3.10;88.20
8105;DHT22;4095;48.942;9.104;2023-02-28T04:26:31;3.20;88.20
8105;DHT22;4095;48.942;9.104;2023-02-28T04:28:57;3.20;88.00
8105;DHT22;4095;48.942;9.104;2023-02-28T04:31:23;3.20;88.00
8105;DHT22;4095;48.942;9.104;2023-02-28T04:33:49;3.20;88.00
8105;DHT22;4095;48.942;9.104;2023-02-28T04:36:14;3.30;87.80
8105;DHT22;4095;48.942;9.104;2023-02-28T04:38:43;3.20;87.80
8105;DHT22;4095;48.942;9.104;2023-02-28T04:41:09;3.30;88.30
8105;DHT22;4095;48.942;9.104;2023-02-28T04:43:34;3.30;88.00
8105;DHT22;4095;48.942;9.104;2023-02-28T04:46:03;3.20;88.00
8105;DHT22;4095;48.942;9.104;2023-02-28T04:48:30;3.30;88.20
8105;DHT22;4095;48.942;9.104;2023-02-28T04:51:10;3.30;88.00
8105;DHT22;4095;48.942;9.104;2023-02-28T04:53:38;3.30;88.10
8105;DHT22;4095;48.942;9.104;2023-02-28T04:56:04;3.30;87.90
8105;DHT22;4095;48.942;9.104;2023-02-28T04:58:31;3.30;87.90
8105;DHT22;4095;48.942;9.104;2023-02-28T05:01:24;3.40;87.80
8105;DHT22;4095;48.942;9.104;2023-02-28T05:03:51;3.40;87.70
8105;DHT22;4095;48.942;9.104;2023-02-28T05:06:17;3.40;87.80
8105;DHT22;4095;48.942;9.104;2023-02-28T05:08:43;3.40;88.00
8105;DHT22;4095;48.942;9.104;2023-02-28T05:11:24;3.40;87.90
8105;DHT22;4095;48.942;9.104;2023-02-28T05:13:50;3.40;87.80
8105;DHT22;4095;48.942;9.104;2023-02-28T05:16:16;3.50;87.60
8105;DHT22;4095;48.942;9.104;2023-02-28T05:18:42;3.50;87.80
8105;DHT22;4095;48.942;9.104;2023-02-28T05:21:28;3.50;87.50
8105;DHT22;4095;48.942;9.104;2023-02-28T05:23:55;3.50;87.80
8105;DHT22;4095;48.942;9.104;2023-02-28T05:26:21;3.50;87.80
8105;DHT22;4095;48.942;9.104;2023-02-28T05:28:47;3.50;87.00
8105;DHT22;4095;48.942;9.104;2023-02-28T05:31:13;3.60;86.90
8105;DHT22;4095;48.942;9.104;2023-02-28T05:33:39;3.50;86.90
8105;DHT22;4095;48.942;9.104;2023-02-28T05:36:05;3.60;86.70
8105;DHT22;4095;48.942;9.104;2023-02-28T05:38:31;3.60;86.80
8105;DHT22;4095;48.942;9.104;2023-02-28T05:40:56;3.60;86.60
8105;DHT22;4095;48.942;9.104;2023-02-28T05:43:22;3.60;86.60
8105;DHT22;4095;48.942;9.104;2023-02-28T05:45:48;3.60;85.60
8105;DHT22;4095;48.942;9.104;2023-02-28T05:48:14;3.60;86.60
8105;DHT22;4095;48.942;9.104;2023-02-28T05:50:40;3.70;86.50
8105;DHT22;4095;48.942;9.104;2023-02-28T05:53:06;3.70;86.00
8105;DHT22;4095;48.942;9.104;2023-02-28T05:55:31;3.70;86.10
8105;DHT22;4095;48.942;9.104;2023-02-28T05:57:57;3.80;85.80
8105;DHT22;4095;48.942;9.104;2023-02-28T06:00:23;3.70;85.50
8105;DHT22;4095;48.942;9.104;2023-02-28T06:02:48;3.70;85.40
8105;DHT22;4095;48.942;9.104;2023-02-28T06:05:16;3.70;85.80
8105;DHT22;4095;48.942;9.104;2023-02-28T06:07:42;3.70;86.00
8105;DHT22;4095;48.942;9.104;2023-02-28T06:10:09;3.70;85.60
8105;DHT22;4095;48.942;9.104;2023-02-28T06:12:35;3.70;86.40
8105;DHT22;4095;48.942;9.104;2023-02-28T06:15:01;3.70;85.80
8105;DHT22;4095;48.942;9.104;2023-02-28T06:17:26;3.70;85.70
8105;DHT22;4095;48.942;9.104;2023-02-28T06:19:52;3.70;86.10
8105;DHT22;4095;48.942;9.104;2023-02-28T06:22:17;3.80;85.70
8105;DHT22;4095;48.942;9.104;2023-02-28T06:24:43;3.80;85.90
8105;DHT22;4095;48.942;9.104;2023-02-28T06:27:08;3.80;85.50
8105;DHT22;4095;48.942;9.104;2023-02-28T06:29:34;3.80;85.90
8105;DHT22;4095;48.942;9.104;2023-02-28T06:32:00;3.70;85.40
8105;DHT22;4095;48.942;9.104;2023-02-28T06:34:26;3.70;85.80
8105;DHT22;4095;48.942;9.104;2023-02-28T06:36:52;3.80;85.90
8105;DHT22;4095;48.942;9.104;2023-02-28T06:39:18;3.90;85.70
8105;DHT22;4095;48.942;9.104;2023-02-28T06:41:43;3.80;85.60
8105;DHT22;4095;48.942;9.104;2023-02-28T06:44:15;3.90;85.80
8105;DHT22;4095;48.942;9.104;2023-02-28T06:46:43;4.00;85.80
8105;DHT22;4095;48.942;9.104;2023-02-28T06:49:09;3.90;85.70
8105;DHT22;4095;48.942;9.104;2023-02-28T06:51:37;3.90;85.70
8105;DHT22;4095;48.942;9.104;2023-02-28T06:54:03;4.00;85.80
8105;DHT22;4095;48.942;9.104;2023-02-28T06:56:29;4.00;85.20
8105;DHT22;4095;48.942;9.104;2023-02-28T06:58:54;4.00;85.10
8105;DHT22;4095;48.942;9.104;2023-02-28T07:01:20;4.00;84.80
8105;DHT22;4095;48.942;9.104;2023-02-28T07:03:48;4.00;85.40
8105;DHT22;4095;48.942;9.104;2023-02-28T07:06:18;4.00;84.80
8105;DHT22;4095;48.942;9.104;2023-02-28T07:08:44;4.00;84.80
8105;DHT22;4095;48.942;9.104;2023-02-28T07:11:10;4.00;85.30
8105;DHT22;4095;48.942;9.104;2023-02-28T07:13:36;4.10;85.30
8105;DHT22;4095;48.942;9.104;2023-02-28T07:16:03;4.10;85.20
8105;DHT22;4095;48.942;9.104;2023-02-28T07:18:29;4.10;84.90
8105;DHT22;4095;48.942;9.104;2023-02-28T07:20:55;4.10;85.30
8105;DHT22;4095;48.942;9.104;2023-02-28T07:23:21;4.20;85.60
8105;DHT22;4095;48.942;9.104;2023-02-28T07:25:47;4.10;85.30
8105;DHT22;4095;48.942;9.104;2023-02-28T07:28:13;4.20;85.10
8105;DHT22;4095;48.942;9.104;2023-02-28T07:30:39;4.20;85.10
8105;DHT22;4095;48.942;9.104;2023-02-28T07:33:05;4.10;84.70
8105;DHT22;4095;48.942;9.104;2023-02-28T07:35:31;4.20;84.50
8105;DHT22;4095;48.942;9.104;2023-02-28T07:38:00;4.10;84.60
8105;DHT22;4095;48.942;9.104;2023-02-28T07:40:26;4.30;84.70
8105;DHT22;4095;48.942;9.104;2023-02-28T07:42:52;4.20;84.80
8105;DHT22;4095;48.942;9.104;2023-02-28T07:45:18;4.30;84.50
8105;DHT22;4095;48.942;9.104;2023-02-28T07:47:45;4.30;84.20
8105;DHT22;4095;48.942;9.104;2023-02-28T07:50:12;4.30;84.90
8105;DHT22;4095;48.942;9.104;2023-02-28T07:52:40;4.40;85.00
8105;DHT22;4095;48.942;9.104;2023-02-28T07:55:07;4.40;84.40
8105;DHT22;4095;48.942;9.104;2023-02-28T07:57:33;4.40;85.00
8105;DHT22;4095;48.942;9.104;2023-02-28T07:59:58;4.40;84.30
8105;DHT22;4095;48.942;9.104;2023-02-28T08:02:24;4.50;84.70
8105;DHT22;4095;48.942;9.104;2023-02-28T08:04:50;4.50;84.10
8105;DHT22;4095;48.942;9.104;2023-02-28T08:07:16;4.50;84.70
8105;DHT22;4095;48.942;9.104;2023-02-28T08:09:43;4.50;84.50
8105;DHT22;4095;48.942;9.104;2023-02-28T08:12:09;4.50;84.10
8105;DHT22;4095;48.942;9.104;2023-02-28T08:14:35;4.60;84.20
8105;DHT22;4095;48.942;9.104;2023-02-28T08:17:01;4.60;84.60
8105;DHT22;4095;48.942;9.104;2023-02-28T08:19:27;4.60;84.10
8105;DHT22;4095;48.942;9.104;2023-02-28T08:21:55;4.70;84.50
8105;DHT22;4095;48.942;9.104;2023-02-28T08:24:21;4.70;84.40
8105;DHT22;4095;48.942;9.104;2023-02-28T08:26:47;4.70;84.20
8105;DHT22;4095;48.942;9.104;2023-02-28T08:29:12;4.70;84.00
8105;DHT22;4095;48.942;9.104;2023-02-28T08:31:38;4.70;83.60
8105;DHT22;4095;48.942;9.104;2023-02-28T08:34:08;4.80;83.60
8105;DHT22;4095;48.942;9.104;2023-02-28T08:36:34;4.90;84.30
8105;DHT22;4095;48.942;9.104;2023-02-28T08:39:00;4.90;84.10
8105;DHT22;4095;48.942;9.104;2023-02-28T08:41:26;5.00;84.20
8105;DHT22;4095;48.942;9.104;2023-02-28T08:43:52;5.00;84.30
8105;DHT22;4095;48.942;9.104;2023-02-28T08:46:19;5.20;83.40
8105;DHT22;4095;48.942;9.104;2023-02-28T08:48:45;5.20;83.10
8105;DHT22;4095;48.942;9.104;2023-02-28T08:51:14;5.30;83.60
8105;DHT22;4095;48.942;9.104;2023-02-28T08:53:41;5.30;83.00
8105;DHT22;4095;48.942;9.104;2023-02-28T08:56:12;5.40;82.90
8105;DHT22;4095;48.942;9.104;2023-02-28T08:58:38;5.40;82.70
8105;DHT22;4095;48.942;9.104;2023-02-28T09:01:13;5.50;82.10
8105;DHT22;4095;48.942;9.104;2023-02-28T09:03:39;5.50;82.00
8105;DHT22;4095;48.942;9.104;2023-02-28T09:06:07;5.50;81.00
8105;DHT22;4095;48.942;9.104;2023-02-28T09:08:32;5.50;81.00
8105;DHT22;4095;48.942;9.104;2023-02-28T09:10:58;5.50;81.10
8105;DHT22;4095;48.942;9.104;2023-02-28T09:13:25;5.50;81.20
8105;DHT22;4095;48.942;9.104;2023-02-28T09:15:51;5.60;81.60
8105;DHT22;4095;48.942;9.104;2023-02-28T09:18:17;5.70;81.40
8105;DHT22;4095;48.942;9.104;2023-02-28T09:20:43;5.70;80.80
8105;DHT22;4095;48.942;9.104;2023-02-28T09:23:10;5.70;80.70
8105;DHT22;4095;48.942;9.104;2023-02-28T09:25:36;5.70;81.00
8105;DHT22;4095;48.942;9.104;2023-02-28T09:28:02;5.80;80.60
8105;DHT22;4095;48.942;9.104;2023-02-28T09:30:29;5.80;80.60
8105;DHT22;4095;48.942;9.104;2023-02-28T09:32:54;5.80;80.70
8105;DHT22;4095;48.942;9.104;2023-02-28T09:35:22;5.90;80.70
8105;DHT22;4095;48.942;9.104;2023-02-28T09:37:49;5.90;80.50
8105;DHT22;4095;48.942;9.104;2023-02-28T09:40:15;6.00;81.40
8105;DHT22;4095;48.942;9.104;2023-02-28T09:42:45;6.00;80.50
8105;DHT22;4095;48.942;9.104;2023-02-28T09:45:36;6.10;81.30
8105;DHT22;4095;48.942;9.104;2023-02-28T09:48:23;6.20;80.50
8105;DHT22;4095;48.942;9.104;2023-02-28T09:51:03;6.10;79.80
8105;DHT22;4095;48.942;9.104;2023-02-28T09:53:36;6.10;80.00
8105;DHT22;4095;48.942;9.104;2023-02-28T09:56:09;6.20;79.90
8105;DHT22;4095;48.942;9.104;2023-02-28T10:01:17;6.30;79.80
8105;DHT22;4095;48.942;9.104;2023-02-28T10:06:25;6.50;79.30
8105;DHT22;4095;48.942;9.104;2023-02-28T10:09:08;6.50;79.20
8105;DHT22;4095;48.942;9.104;2023-02-28T10:11:40;6.50;78.50
8105;DHT22;4095;48.942;9.104;2023-02-28T10:14:18;6.50;78.80
8105;DHT22;4095;48.942;9.104;2023-02-28T10:19:35;6.50;77.60
8105;DHT22;4095;48.942;9.104;2023-02-28T10:22:37;6.40;78.20
8105;DHT22;4095;48.942;9.104;2023-02-28T10:25:19;6.60;79.00
8105;DHT22;4095;48.942;9.104;2023-02-28T10:27:45;6.60;78.80
8105;DHT22;4095;48.942;9.104;2023-02-28T10:30:12;6.70;79.20
8105;DHT22;4095;48.942;9.104;2023-02-28T10:32:40;6.80;79.30
8105;DHT22;4095;48.942;9.104;2023-02-28T10:35:15;6.90;77.90
8105;DHT22;4095;48.942;9.104;2023-02-28T10:37:42;6.90;78.80
8105;DHT22;4095;48.942;9.104;2023-02-28T10:40:30;7.00;78.00
8105;DHT22;4095;48.942;9.104;2023-02-28T10:43:03;7.10;77.80
8105;DHT22;4095;48.942;9.104;2023-02-28T10:45:30;7.30;78.20
8105;DHT22;4095;48.942;9.104;2023-02-28T10:48:00;7.60;77.70
8105;DHT22;4095;48.942;9.104;2023-02-28T10:53:13;8.10;75.50
8105;DHT22;4095;48.942;9.104;2023-02-28T10:55:40;8.20;75.40
8105;DHT22;4095;48.942;9.104;2023-02-28T10:58:21;8.50;74.70
8105;DHT22;4095;48.942;9.104;2023-02-28T11:00:47;8.60;74.60
8105;DHT22;4095;48.942;9.104;2023-02-28T11:03:34;8.60;74.40
8105;DHT22;4095;48.942;9.104;2023-02-28T11:06:06;8.60;73.20
8105;DHT22;4095;48.942;9.104;2023-02-28T11:08:33;8.70;73.80
8105;DHT22;4095;48.942;9.104;2023-02-28T11:11:04;9.10;74.30
8105;DHT22;4095;48.942;9.104;2023-02-28T11:13:35;9.30;73.40
8105;DHT22;4095;48.942;9.104;2023-02-28T11:16:06;9.30;72.80
8105;DHT22;4095;48.942;9.104;2023-02-28T11:21:02;9.70;71.50
8105;DHT22;4095;48.942;9.104;2023-02-28T11:23:30;9.90;70.70
8105;DHT22;4095;48.942;9.104;2023-02-28T11:26:00;9.90;70.80
8105;DHT22;4095;48.942;9.104;2023-02-28T11:28:30;9.80;70.70
8105;DHT22;4095;48.942;9.104;2023-02-28T11:31:22;9.60;70.30
8105;DHT22;4095;48.942;9.104;2023-02-28T11:33:54;9.40;70.60
8105;DHT22;4095;48.942;9.104;2023-02-28T11:36:30;9.60;71.90
8105;DHT22;4095;48.942;9.104;2023-02-28T11:39:00;10.80;68.40
8105;DHT22;4095;48.942;9.104;2023-02-28T11:44:42;11.70;65.20
8105;DHT22;4095;48.942;9.104;2023-02-28T11:47:32;12.50;65.00
8105;DHT22;4095;48.942;9.104;2023-02-28T11:50:22;12.50;64.40
8105;DHT22;4095;48.942;9.104;2023-02-28T11:52:57;12.80;64.30
8105;DHT22;4095;48.942;9.104;2023-02-28T12:01:20;13.50;60.70
8105;DHT22;4095;48.942;9.104;2023-02-28T12:18:01;18.50;53.80
8105;DHT22;4095;48.942;9.104;2023-02-28T12:20:37;18.90;53.30
8105;DHT22;4095;48.942;9.104;2023-02-28T12:28:44;17.20;53.40
8105;DHT22;4095;48.942;9.104;2023-02-28T12:31:20;17.00;54.10
8105;DHT22;4095;48.942;9.104;2023-02-28T12:33:51;16.50;55.70
8105;DHT22;4095;48.942;9.104;2023-02-28T12:36:19;16.20;55.60
8105;DHT22;4095;48.942;9.104;2023-02-28T12:39:26;16.20;54.90
8105;DHT22;4095;48.942;9.104;2023-02-28T12:42:03;17.00;55.50
8105;DHT22;4095;48.942;9.104;2023-02-28T12:44:46;17.80;54.70
8105;DHT22;4095;48.942;9.104;2023-02-28T12:47:16;18.40;52.80
8105;DHT22;4095;48.942;9.104;2023-02-28T12:50:05;18.50;53.40
8105;DHT22;4095;48.942;9.104;2023-02-28T12:55:21;18.70;51.80
8105;DHT22;4095;48.942;9.104;2023-02-28T12:58:10;18.80;50.60
8105;DHT22;4095;48.942;9.104;2023-02-28T13:00:42;18.90;50.30
8105;DHT22;4095;48.942;9.104;2023-02-28T13:03:37;19.00;52.30
8105;DHT22;4095;48.942;9.104;2023-02-28T13:06:34;19.10;50.50
8105;DHT22;4095;48.942;9.104;2023-02-28T13:09:09;19.20;50.30
8105;DHT22;4095;48.942;9.104;2023-02-28T13:11:39;19.30;51.30
8105;DHT22;4095;48.942;9.104;2023-02-28T13:19:36;18.70;49.60
8105;DHT22;4095;48.942;9.104;2023-02-28T13:22:03;18.20;50.00
8105;DHT22;4095;48.942;9.104;2023-02-28T13:47:38;14.10;57.20
8105;DHT22;4095;48.942;9.104;2023-02-28T14:04:45;13.60;58.80
8105;DHT22;4095;48.942;9.104;2023-02-28T14:06:54;13.40;59.00
8105;DHT22;4095;48.942;9.104;2023-02-28T14:11:51;13.20;58.20
8105;DHT22;4095;48.942;9.104;2023-02-28T14:17:07;13.10;59.80
8105;DHT22;4095;48.942;9.104;2023-02-28T14:19:37;13.10;59.60
8105;DHT22;4095;48.942;9.104;2023-02-28T14:37:51;13.20;59.10
8105;DHT22;4095;48.942;9.104;2023-02-28T14:40:24;13.10;59.30
8105;DHT22;4095;48.942;9.104;2023-02-28T14:42:56;13.00;59.80
8105;DHT22;4095;48.942;9.104;2023-02-28T14:45:22;13.00;60.00
8105;DHT22;4095;48.942;9.104;2023-02-28T14:47:52;13.00;60.30
8105;DHT22;4095;48.942;9.104;2023-02-28T14:50:35;12.90;60.50
8105;DHT22;4095;48.942;9.104;2023-02-28T14:53:01;12.60;60.40
8105;DHT22;4095;48.942;9.104;2023-02-28T14:55:36;12.40;60.30
8105;DHT22;4095;48.942;9.104;2023-02-28T14:58:06;12.30;60.50
8105;DHT22;4095;48.942;9.104;2023-02-28T15:00:50;12.20;60.60
8105;DHT22;4095;48.942;9.104;2023-02-28T15:03:28;12.10;61.40
8105;DHT22;4095;48.942;9.104;2023-02-28T15:06:15;12.00;61.70
8105;DHT22;4095;48.942;9.104;2023-02-28T15:08:44;12.00;61.70
8105;DHT22;4095;48.942;9.104;2023-02-28T15:11:18;12.00;61.90
8105;DHT22;4095;48.942;9.104;2023-02-28T15:13:52;12.00;61.60
8105;DHT22;4095;48.942;9.104;2023-02-28T15:16:22;11.90;62.10
8105;DHT22;4095;48.942;9.104;2023-02-28T15:18:56;11.70;61.70
8105;DHT22;4095;48.942;9.104;2023-02-28T15:21:30;11.60;61.80
8105;DHT22;4095;48.942;9.104;2023-02-28T15:24:01;11.60;61.90
8105;DHT22;4095;48.942;9.104;2023-02-28T15:26:42;11.60;62.80
8105;DHT22;4095;48.942;9.104;2023-02-28T15:29:21;11.60;62.60
8105;DHT22;4095;48.942;9.104;2023-02-28T15:32:03;11.50;62.50
8105;DHT22;4095;48.942;9.104;2023-02-28T15:34:43;11.40;62.90
8105;DHT22;4095;48.942;9.104;2023-02-28T15:39:53;11.20;63.20
8105;DHT22;4095;48.942;9.104;2023-02-28T15:42:21;11.20;63.30
8105;DHT22;4095;48.942;9.104;2023-02-28T15:44:47;11.10;63.70
8105;DHT22;4095;48.942;9.104;2023-02-28T15:47:24;11.10;64.00
8105;DHT22;4095;48.942;9.104;2023-02-28T15:49:58;11.00;64.10
8105;DHT22;4095;48.942;9.104;2023-02-28T15:52:34;10.80;64.40
8105;DHT22;4095;48.942;9.104;2023-02-28T15:55:20;10.80;64.50
8105;DHT22;4095;48.942;9.104;2023-02-28T15:57:50;10.60;64.50
8105;DHT22;4095;48.942;9.104;2023-02-28T16:00:21;10.50;64.70
8105;DHT22;4095;48.942;9.104;2023-02-28T16:02:47;10.40;65.10
8105;DHT22;4095;48.942;9.104;2023-02-28T16:05:20;10.20;65.50
8105;DHT22;4095;48.942;9.104;2023-02-28T16:07:54;10.10;65.60
8105;DHT22;4095;48.942;9.104;2023-02-28T16:10:21;10.00;65.70
8105;DHT22;4095;48.942;9.104;2023-02-28T16:12:50;9.90;66.40
8105;DHT22;4095;48.942;9.104;2023-02-28T16:15:20;9.90;66.80
8105;DHT22;4095;48.942;9.104;2023-02-28T16:17:47;9.80;67.00
8105;DHT22;4095;48.942;9.104;2023-02-28T16:20:31;9.70;67.20
8105;DHT22;4095;48.942;9.104;2023-02-28T16:22:56;9.70;66.90
8105;DHT22;4095;48.942;9.104;2023-02-28T16:25:38;9.60;68.00
8105;DHT22;4095;48.942;9.104;2023-02-28T16:28:04;9.50;68.00
8105;DHT22;4095;48.942;9.104;2023-02-28T16:30:33;9.40;67.90
8105;DHT22;4095;48.942;9.104;2023-02-28T16:32:58;9.30;67.90
8105;DHT22;4095;48.942;9.104;2023-02-28T16:35:25;9.20;68.50
8105;DHT22;4095;48.942;9.104;2023-02-28T16:37:51;9.10;68.60
8105;DHT22;4095;48.942;9.104;2023-02-28T16:40:24;9.10;69.00
8105;DHT22;4095;48.942;9.104;2023-02-28T16:42:53;9.00;68.80
8105;DHT22;4095;48.942;9.104;2023-02-28T16:45:28;8.90;69.30
8105;DHT22;4095;48.942;9.104;2023-02-28T16:47:54;8.80;69.50
8105;DHT22;4095;48.942;9.104;2023-02-28T16:50:21;8.80;69.60
8105;DHT22;4095;48.942;9.104;2023-02-28T16:52:47;8.70;70.00
8105;DHT22;4095;48.942;9.104;2023-02-28T16:55:15;8.60;70.20
8105;DHT22;4095;48.942;9.104;2023-02-28T16:57:41;8.60;70.10
8105;DHT22;4095;48.942;9.104;2023-02-28T17:00:11;8.50;70.30
8105;DHT22;4095;48.942;9.104;2023-02-28T17:02:38;8.40;70.80
8105;DHT22;4095;48.942;9.104;2023-02-28T17:05:04;8.40;70.20
8105;DHT22;4095;48.942;9.104;2023-02-28T17:07:29;8.30;70.20
8105;DHT22;4095;48.942;9.104;2023-02-28T17:09:55;8.30;70.20
8105;DHT22;4095;48.942;9.104;2023-02-28T17:12:20;8.20;70.30
8105;DHT22;4095;48.942;9.104;2023-02-28T17:14:46;8.10;70.40
8105;DHT22;4095;48.942;9.104;2023-02-28T17:17:17;8.00;70.90
8105;DHT22;4095;48.942;9.104;2023-02-28T17:19:44;8.00;70.90
8105;DHT22;4095;48.942;9.104;2023-02-28T17:22:10;7.90;71.20
8105;DHT22;4095;48.942;9.104;2023-02-28T17:24:35;7.90;71.40
8105;DHT22;4095;48.942;9.104;2023-02-28T17:27:01;7.80;71.50
8105;DHT22;4095;48.942;9.104;2023-02-28T17:29:27;7.80;71.60
8105;DHT22;4095;48.942;9.104;2023-02-28T17:31:53;7.70;72.00
8105;DHT22;4095;48.942;9.104;2023-02-28T17:34:19;7.60;72.10
8105;DHT22;4095;48.942;9.104;2023-02-28T17:36:46;7.50;72.40
8105;DHT22;4095;48.942;9.104;2023-02-28T17:39:13;7.50;72.30
8105;DHT22;4095;48.942;9.104;2023-02-28T17:41:42;7.40;72.30
8105;DHT22;4095;48.942;9.104;2023-02-28T17:44:08;7.40;72.90
8105;DHT22;4095;48.942;9.104;2023-02-28T17:46:35;7.30;72.50
8105;DHT22;4095;48.942;9.104;2023-02-28T17:49:01;7.20;73.00
8105;DHT22;4095;48.942;9.104;2023-02-28T17:51:26;7.20;73.10
8105;DHT22;4095;48.942;9.104;2023-02-28T17:53:52;7.20;73.00
8105;DHT22;4095;48.942;9.104;2023-02-28T17:56:23;7.10;73.10
8105;DHT22;4095;48.942;9.104;2023-02-28T17:58:49;7.00;73.20
8105;DHT22;4095;48.942;9.104;2023-02-28T18:01:16;6.90;73.40
8105;DHT22;4095;48.942;9.104;2023-02-28T18:03:42;6.80;73.60
8105;DHT22;4095;48.942;9.104;2023-02-28T18:06:15;6.70;73.80
8105;DHT22;4095;48.942;9.104;2023-02-28T18:08:41;6.70;74.20
8105;DHT22;4095;48.942;9.104;2023-02-28T18:11:07;6.70;73.70
8105;DHT22;4095;48.942;9.104;2023-02-28T18:13:45;6.70;74.00
8105;DHT22;4095;48.942;9.104;2023-02-28T18:16:11;6.70;74.00
8105;DHT22;4095;48.942;9.104;2023-02-28T18:18:37;6.60;73.80
8105;DHT22;4095;48.942;9.104;2023-02-28T18:21:07;6.60;74.50
8105;DHT22;4095;48.942;9.104;2023-02-28T18:23:34;6.50;74.80
8105;DHT22;4095;48.942;9.104;2023-02-28T18:25:59;6.50;74.50
8105;DHT22;4095;48.942;9.104;2023-02-28T18:28:25;6.60;74.70
8105;DHT22;4095;48.942;9.104;2023-02-28T18:30:51;6.50;75.00
8105;DHT22;4095;48.942;9.104;2023-02-28T18:33:17;6.50;75.30
8105;DHT22;4095;48.942;9.104;2023-02-28T18:35:42;6.50;75.40
8105;DHT22;4095;48.942;9.104;2023-02-28T18:38:17;6.40;75.60
8105;DHT22;4095;48.942;9.104;2023-02-28T18:40:55;6.40;76.00
8105;DHT22;4095;48.942;9.104;2023-02-28T18:43:21;6.40;76.20
8105;DHT22;4095;48.942;9.104;2023-02-28T18:45:46;6.30;76.40
8105;DHT22;4095;48.942;9.104;2023-02-28T18:48:12;6.40;76.50
8105;DHT22;4095;48.942;9.104;2023-02-28T18:50:39;6.40;76.30
8105;DHT22;4095;48.942;9.104;2023-02-28T18:53:06;6.40;76.40
8105;DHT22;4095;48.942;9.104;2023-02-28T18:55:32;6.40;76.30
8105;DHT22;4095;48.942;9.104;2023-02-28T18:57:58;6.40;76.70
8105;DHT22;4095;48.942;9.104;2023-02-28T19:00:24;6.40;76.50
8105;DHT22;4095;48.942;9.104;2023-02-28T19:02:50;6.30;76.90